createdAt,value
2018-11-22T00:01:41.450Z,0
2018-11-22T00:04:47.341Z,0
2018-11-22T00:07:53.211Z,0
2018-11-22T00:10:59.174Z,0
2018-11-22T00:14:05.112Z,0
2018-11-22T00:17:11.082Z,0
2018-11-22T00:20:17.096Z,0
2018-11-22T00:23:22.997Z,0
2018-11-22T00:26:29.777Z,0
2018-11-22T00:29:35.712Z,0
2018-11-22T00:32:41.818Z,0
2018-11-22T00:35:47.863Z,0
2018-11-22T00:38:53.821Z,0
2018-11-22T00:41:59.694Z,0
2018-11-22T00:45:05.746Z,0
2018-11-22T00:48:11.806Z,0
2018-11-22T00:51:17.672Z,0
2018-11-22T00:54:23.622Z,0
2018-11-22T00:57:29.488Z,0
2018-11-22T01:00:35.499Z,0
2018-11-22T01:03:41.597Z,0
2018-11-22T01:06:47.541Z,0
2018-11-22T01:09:53.516Z,0
2018-11-22T01:12:59.476Z,0
2018-11-22T01:16:05.440Z,0
2018-11-22T01:19:11.396Z,0
2018-11-22T01:22:17.339Z,0
2018-11-22T01:25:23.319Z,0
2018-11-22T01:28:29.188Z,0
2018-11-22T01:31:35.144Z,0
2018-11-22T01:34:41.103Z,0
2018-11-22T01:37:47.164Z,0
2018-11-22T01:40:53.113Z,0
2018-11-22T01:43:59.073Z,0
2018-11-22T01:47:05.040Z,0
2018-11-22T01:50:11.004Z,0
2018-11-22T01:53:17.059Z,0
2018-11-22T01:56:22.928Z,0
2018-11-22T01:59:28.873Z,0
2018-11-22T02:02:35.144Z,0
2018-11-22T02:05:41.199Z,0
2018-11-22T02:08:47.114Z,0
2018-11-22T02:11:53.020Z,0
2018-11-22T02:14:59.076Z,0
2018-11-22T02:18:04.950Z,0
2018-11-22T02:21:11.012Z,0
2018-11-22T02:24:17.111Z,0
2018-11-22T02:27:23.034Z,0
2018-11-22T02:30:29.162Z,0
2018-11-22T02:33:35.041Z,0
2018-11-22T02:36:41.021Z,0
2018-11-22T02:39:46.971Z,0
2018-11-22T02:42:53.124Z,0
2018-11-22T02:45:59.094Z,0
2018-11-22T02:49:05.149Z,0
2018-11-22T02:52:11.017Z,0
2018-11-22T02:55:17.033Z,0
2018-11-22T02:58:23.034Z,0
2018-11-22T03:01:28.999Z,0
2018-11-22T03:04:35.167Z,0
2018-11-22T03:07:41.224Z,0
2018-11-22T03:10:47.181Z,0
2018-11-22T03:13:53.241Z,0
2018-11-22T03:16:59.117Z,0
2018-11-22T03:20:05.359Z,0
2018-11-22T03:23:11.232Z,0
2018-11-22T03:26:17.175Z,0
2018-11-22T03:29:23.147Z,0
2018-11-22T03:32:29.097Z,0
2018-11-22T03:35:35.156Z,0
2018-11-22T03:38:41.116Z,0
2018-11-22T03:41:47.186Z,0
2018-11-22T03:44:53.240Z,0
2018-11-22T03:47:59.114Z,0
2018-11-22T03:51:05.070Z,0
2018-11-22T03:54:11.016Z,131.8
2018-11-22T03:57:17.077Z,167
2018-11-22T04:00:22.954Z,176.4
2018-11-22T04:03:28.999Z,181.4
2018-11-22T04:06:34.954Z,182.9
2018-11-22T04:09:40.925Z,183.6
2018-11-22T04:12:47.083Z,184.3
2018-11-22T04:15:53.094Z,184.3
2018-11-22T04:18:59.098Z,184.3
2018-11-22T04:22:05.071Z,184.3
2018-11-22T04:25:11.119Z,184.3
2018-11-22T04:28:17.091Z,184.3
2018-11-22T04:31:23.157Z,184.3
2018-11-22T04:34:29.075Z,184.3
2018-11-22T04:37:35.220Z,183.6
2018-11-22T04:40:41.099Z,185.8
2018-11-22T04:43:47.084Z,185.8
2018-11-22T04:46:53.130Z,185.8
2018-11-22T04:49:59.003Z,185.8
2018-11-22T04:53:05.062Z,187.2
2018-11-22T04:56:11.009Z,185.8
2018-11-22T04:59:16.984Z,187.2
2018-11-22T05:02:22.947Z,187.2
2018-11-22T05:05:28.906Z,187.2
2018-11-22T05:08:34.779Z,185.8
2018-11-22T05:11:40.792Z,187.2
2018-11-22T05:14:46.784Z,187.2
2018-11-22T05:17:52.748Z,187.2
2018-11-22T05:20:58.706Z,187.2
2018-11-22T05:24:04.663Z,185.8
2018-11-22T05:27:10.601Z,187.2
2018-11-22T05:30:16.599Z,187.2
2018-11-22T05:33:22.645Z,187.2
2018-11-22T05:36:28.604Z,185.8
2018-11-22T05:39:34.563Z,187.2
2018-11-22T05:42:40.504Z,187.2
2018-11-22T05:45:46.493Z,187.2
2018-11-22T05:48:52.548Z,187.2
2018-11-22T05:51:58.524Z,182.9
2018-11-22T05:55:04.467Z,177.1
2018-11-22T05:58:10.585Z,187.2
2018-11-22T06:01:19.354Z,188.6
2018-11-22T06:04:25.250Z,187.2
2018-11-22T06:07:31.274Z,187.2
2018-11-22T06:10:37.258Z,187.2
2018-11-22T06:13:43.138Z,185.8
2018-11-22T06:16:49.255Z,184.3
2018-11-22T06:19:55.319Z,187.2
2018-11-22T06:23:01.276Z,185.8
2018-11-22T06:26:07.241Z,184.3
2018-11-22T06:29:13.307Z,184.3
2018-11-22T06:32:22.133Z,184.3
2018-11-22T06:35:28.124Z,178.6
2018-11-22T06:38:33.988Z,180
2018-11-22T06:41:40.005Z,185.8
2018-11-22T06:44:45.904Z,183.6
2018-11-22T06:47:52.039Z,184.3
2018-11-22T06:51:01.183Z,182.9
2018-11-22T06:54:07.128Z,183.6
2018-11-22T06:57:13.205Z,184.3
2018-11-22T07:00:19.385Z,185.8
2018-11-22T07:03:25.413Z,190.1
2018-11-22T07:06:31.473Z,188.6
2018-11-22T07:09:37.563Z,190.1
2018-11-22T07:12:43.557Z,191.5
2018-11-22T07:15:49.702Z,191.5
2018-11-22T07:18:55.779Z,191.5
2018-11-22T07:22:01.787Z,191.5
2018-11-22T07:25:07.669Z,191.5
2018-11-22T07:28:13.905Z,190.1
2018-11-22T07:31:19.968Z,190.1
2018-11-22T07:34:25.845Z,190.1
2018-11-22T07:37:32.177Z,190.1
2018-11-22T07:40:38.359Z,190.1
2018-11-22T07:43:44.360Z,190.1
2018-11-22T07:46:50.647Z,190.1
2018-11-22T07:49:56.563Z,190.1
2018-11-22T07:53:02.625Z,188.6
2018-11-22T07:56:11.245Z,191.5
2018-11-22T07:59:17.311Z,191.5
2018-11-22T08:02:23.416Z,193
2018-11-22T08:05:32.061Z,191.5
2018-11-22T08:08:38.166Z,193
2018-11-22T08:11:44.222Z,193
2018-11-22T08:14:52.197Z,194.4
2018-11-22T08:17:58.081Z,191.5
2018-11-22T08:21:08.140Z,193
2018-11-22T08:24:18.232Z,191.5
2018-11-22T08:27:24.145Z,190.1
2018-11-22T08:30:30.021Z,190.1
2018-11-22T08:33:35.911Z,191.5
2018-11-22T08:36:41.974Z,179.3
2018-11-22T08:39:47.986Z,187.2
2018-11-22T08:42:59.144Z,188.6
2018-11-22T08:46:05.437Z,151.9
2018-11-22T08:49:11.396Z,185.8
2018-11-22T08:52:17.408Z,185.8
2018-11-22T08:55:23.365Z,188.6
2018-11-22T08:58:29.383Z,188.6
2018-11-22T09:01:35.501Z,185.8
2018-11-22T09:04:42.422Z,185.8
2018-11-22T09:07:48.495Z,183.6
2018-11-22T09:10:54.564Z,185.8
2018-11-22T09:14:00.673Z,183.6
2018-11-22T09:17:06.628Z,184.3
2018-11-22T09:20:12.753Z,185.8
2018-11-22T09:23:19.878Z,187.2
2018-11-22T09:26:25.888Z,188.6
2018-11-22T09:29:31.860Z,191.5
2018-11-22T09:32:46.828Z,190.1
2018-11-22T09:35:52.875Z,188.6
2018-11-22T09:38:58.935Z,187.2
2018-11-22T09:42:05.301Z,188.6
2018-11-22T09:45:14.641Z,188.6
2018-11-22T09:48:21.220Z,188.6
2018-11-22T09:51:27.292Z,184.3
2018-11-22T09:54:33.240Z,181.4
2018-11-22T09:57:39.399Z,188.6
2018-11-22T10:00:45.574Z,181.4
2018-11-22T10:03:51.537Z,185.8
2018-11-22T10:06:57.652Z,187.2
2018-11-22T10:10:03.563Z,187.2
2018-11-22T10:13:09.514Z,187.2
2018-11-22T10:16:15.475Z,187.2
2018-11-22T10:19:21.435Z,182.9
2018-11-22T10:22:27.752Z,185.8
2018-11-22T10:25:34.074Z,185.8
2018-11-22T10:28:39.925Z,184.3
2018-11-22T10:31:46.598Z,184.3
2018-11-22T10:34:52.975Z,184.3
2018-11-22T10:38:00.711Z,184.3
2018-11-22T10:41:07.658Z,176.4
2018-11-22T10:44:13.551Z,178.6
2018-11-22T10:47:19.759Z,175
2018-11-22T10:50:25.740Z,177.8
2018-11-22T10:53:32.532Z,184.3
2018-11-22T10:56:39.582Z,182.9
2018-11-22T10:59:45.888Z,185.8
2018-11-22T11:02:51.748Z,184.3
2018-11-22T11:05:57.791Z,187.2
2018-11-22T11:09:04.975Z,187.2
2018-11-22T11:12:11.099Z,184.3
2018-11-22T11:15:17.221Z,184.3
2018-11-22T11:18:23.347Z,185.8
2018-11-22T11:21:29.650Z,184.3
2018-11-22T11:24:39.779Z,184.3
2018-11-22T11:27:49.855Z,185.8
2018-11-22T11:30:57.411Z,185.8
2018-11-22T11:34:04.533Z,185.8
2018-11-22T11:37:10.393Z,185.8
2018-11-22T11:40:16.561Z,185.8
2018-11-22T11:43:22.678Z,184.3
2018-11-22T11:46:30.005Z,184.3
2018-11-22T11:49:36.077Z,182.2
2018-11-22T11:52:43.054Z,182.9
2018-11-22T11:55:49.255Z,182.9
2018-11-22T11:58:55.160Z,182.9
2018-11-22T12:02:01.161Z,182.9
2018-11-22T12:05:07.288Z,182.2
2018-11-22T12:08:13.848Z,182.2
2018-11-22T12:11:20.056Z,182.2
2018-11-22T12:14:26.180Z,180.7
2018-11-22T12:17:32.141Z,180
2018-11-22T12:20:38.060Z,180
2018-11-22T12:23:44.136Z,180
2018-11-22T12:26:50.168Z,179.3
2018-11-22T12:29:56.122Z,180
2018-11-22T12:33:02.137Z,164.9
2018-11-22T12:36:08.143Z,180
2018-11-22T12:39:14.102Z,180
2018-11-22T12:42:20.067Z,179.3
2018-11-22T12:45:26.026Z,181.4
2018-11-22T12:48:32.155Z,180.7
2018-11-22T12:51:38.250Z,179.3
2018-11-22T12:54:44.322Z,161.3
2018-11-22T12:57:50.566Z,165.6
2018-11-22T13:00:56.756Z,185.8
2018-11-22T13:04:03.005Z,187.2
2018-11-22T13:07:10.001Z,184.3
2018-11-22T13:10:16.623Z,177.1
2018-11-22T13:13:28.456Z,177.8
2018-11-22T13:16:34.622Z,177.1
2018-11-22T13:19:41.095Z,177.1
2018-11-22T13:22:47.192Z,175.7
2018-11-22T13:25:53.119Z,169.9
2018-11-22T13:28:59.724Z,176.4
2018-11-22T13:32:06.095Z,177.8
2018-11-22T13:35:12.442Z,178.6
2018-11-22T13:38:21.887Z,176.4
2018-11-22T13:41:28.965Z,175
2018-11-22T13:44:34.849Z,175
2018-11-22T13:47:40.993Z,175
2018-11-22T13:50:47.955Z,175
2018-11-22T13:53:54.370Z,166.3
2018-11-22T13:57:00.429Z,175
2018-11-22T14:00:07.104Z,175
2018-11-22T14:03:13.959Z,174.2
2018-11-22T14:06:21.115Z,174.2
2018-11-22T14:09:27.769Z,175
2018-11-22T14:12:34.014Z,175
2018-11-22T14:15:43.348Z,175
2018-11-22T14:18:50.478Z,174.2
2018-11-22T14:21:56.577Z,175
2018-11-22T14:25:02.936Z,174.2
2018-11-22T14:28:08.905Z,174.2
2018-11-22T14:31:14.986Z,173.5
2018-11-22T14:34:20.952Z,175
2018-11-22T14:37:27.968Z,174.2
2018-11-22T14:40:34.997Z,175
2018-11-22T14:43:41.975Z,174.2
2018-11-22T14:46:48.243Z,174.2
2018-11-22T14:49:54.241Z,175
2018-11-22T16:53:00.151Z,183.6
2018-11-22T16:56:06.105Z,184.3
2018-11-22T16:59:12.135Z,184.3
2018-11-22T17:02:18.120Z,183.6
2018-11-22T17:05:23.993Z,183.6
2018-11-22T17:08:30.091Z,184.3
2018-11-22T17:11:36.408Z,184.3
2018-11-22T17:14:42.340Z,183.6
2018-11-22T17:17:48.318Z,183.6
2018-11-22T17:20:54.355Z,184.3
2018-11-22T17:24:00.374Z,184.3
2018-11-22T17:27:06.566Z,184.3
2018-11-22T17:30:14.424Z,184.3
2018-11-22T17:33:20.592Z,184.3
2018-11-22T17:36:26.507Z,184.3
2018-11-22T17:39:34.652Z,184.3
2018-11-22T17:42:40.612Z,185.8
2018-11-22T17:45:46.569Z,184.3
2018-11-22T17:48:52.638Z,185.8
2018-11-22T17:51:58.588Z,184.3
2018-11-22T17:55:04.658Z,185.8
2018-11-22T17:58:13.418Z,185.8
2018-11-22T18:01:19.430Z,187.2
2018-11-22T18:04:25.306Z,187.2
2018-11-22T18:07:31.353Z,188.6
2018-11-22T18:10:37.430Z,188.6
2018-11-22T18:13:43.468Z,188.6
2018-11-22T18:16:49.345Z,188.6
2018-11-22T18:19:55.284Z,188.6
2018-11-22T18:23:01.205Z,188.6
2018-11-22T18:26:07.212Z,190.1
2018-11-22T18:29:13.279Z,190.1
2018-11-22T18:32:19.144Z,190.1
2018-11-22T18:35:25.134Z,190.1
2018-11-22T18:38:31.148Z,190.1
2018-11-22T18:41:37.032Z,188.6
2018-11-22T18:44:42.959Z,188.6
2018-11-22T18:47:48.847Z,190.1
2018-11-22T18:50:54.781Z,190.1
2018-11-22T18:54:00.742Z,190.1
2018-11-22T18:57:06.614Z,190.1
2018-11-22T19:00:12.568Z,187.2
2018-11-22T19:03:18.501Z,187.2
2018-11-22T19:06:24.472Z,187.2
2018-11-22T19:09:30.538Z,187.2
2018-11-22T19:12:36.508Z,187.2
2018-11-22T19:15:42.566Z,187.2
2018-11-22T19:18:48.445Z,187.2
2018-11-22T19:21:54.373Z,187.2
2018-11-22T19:25:00.353Z,188.6
2018-11-22T19:28:06.295Z,187.2
2018-11-22T19:31:12.181Z,187.2
2018-11-22T19:34:18.163Z,187.2
2018-11-22T19:37:24.459Z,187.2
2018-11-22T19:40:33.486Z,187.2
2018-11-22T19:43:39.473Z,188.6
2018-11-22T19:46:45.427Z,187.2
2018-11-22T19:49:51.500Z,188.6
2018-11-22T19:52:57.545Z,185.8
2018-11-22T19:56:03.612Z,184.3
2018-11-22T19:59:09.540Z,185.8
2018-11-22T20:02:15.530Z,0.5
2018-11-22T20:05:21.400Z,0
2018-11-22T20:08:27.358Z,0
2018-11-22T20:11:33.408Z,0.5
2018-11-22T20:14:39.367Z,0
2018-11-22T20:17:45.378Z,0
2018-11-22T20:20:53.131Z,0
2018-11-22T20:23:59.195Z,0
2018-11-22T20:27:05.112Z,0
2018-11-22T20:30:11.276Z,0
2018-11-22T20:33:18.096Z,0
2018-11-22T20:36:24.058Z,0
2018-11-22T20:39:30.015Z,0
2018-11-22T20:42:35.882Z,0
2018-11-22T20:45:43.982Z,0
2018-11-22T20:48:49.940Z,0
2018-11-22T20:51:55.811Z,0
2018-11-22T20:55:01.824Z,0
2018-11-22T20:58:07.926Z,0
2018-11-22T21:01:13.992Z,0
2018-11-22T21:04:19.954Z,0
2018-11-22T21:07:25.822Z,0
2018-11-22T21:10:31.971Z,0
2018-11-22T21:13:38.138Z,0
2018-11-22T21:16:44.005Z,0
2018-11-22T21:19:49.941Z,0
2018-11-22T21:22:55.963Z,0
2018-11-22T21:26:01.879Z,0
2018-11-22T21:29:08.030Z,0
2018-11-22T21:32:13.905Z,0
2018-11-22T21:35:19.845Z,0
2018-11-22T21:38:25.709Z,0
2018-11-22T21:41:31.661Z,0
2018-11-22T21:44:37.525Z,0
2018-11-22T21:47:43.576Z,0
2018-11-22T21:50:49.530Z,0
2018-11-22T21:53:55.405Z,0
2018-11-22T21:57:01.420Z,0
2018-11-22T22:00:07.438Z,0
2018-11-22T22:03:13.472Z,0
2018-11-22T22:06:19.446Z,0
2018-11-22T22:09:26.350Z,0
2018-11-22T22:12:32.381Z,0
2018-11-22T22:15:38.534Z,0
2018-11-22T22:18:44.614Z,0
2018-11-22T22:21:50.495Z,0
2018-11-22T22:24:56.417Z,0
2018-11-22T22:28:02.479Z,0
2018-11-22T22:31:08.354Z,0
2018-11-22T22:34:14.305Z,0
2018-11-22T22:37:20.353Z,0
2018-11-22T22:40:26.326Z,0
2018-11-22T22:43:32.292Z,0
2018-11-22T22:46:38.148Z,0
2018-11-22T22:49:44.206Z,0
2018-11-22T22:52:50.267Z,0
2018-11-22T22:55:56.314Z,0
2018-11-22T22:59:05.048Z,0
2018-11-22T23:02:11.054Z,0
2018-11-22T23:05:17.072Z,0
2018-11-22T23:08:23.020Z,0
2018-11-22T23:11:28.896Z,0
2018-11-22T23:14:34.837Z,0
2018-11-22T23:17:40.707Z,0
2018-11-22T23:20:46.650Z,0
2018-11-22T23:23:52.612Z,0
2018-11-22T23:26:58.527Z,0
2018-11-22T23:30:04.427Z,0
2018-11-22T23:33:10.301Z,0
2018-11-22T23:36:16.256Z,0
2018-11-22T23:39:22.216Z,0
2018-11-22T23:42:28.171Z,0
2018-11-22T23:45:34.047Z,0
2018-11-22T23:48:40.092Z,0
2018-11-22T23:51:46.058Z,0
2018-11-22T23:54:51.916Z,0
2018-11-22T23:58:00.410Z,0
